sensor_id;sensor_type;location;lat;lon;timestamp;P1;durP1;ratioP1;P2;durP2;ratioP2
3197;SDS011;1611;49.394;11.136;2023-01-10T00:01:37;3.53;;;2.00;;
3197;SDS011;1611;49.394;11.136;2023-01-10T00:04:04;5.15;;;1.90;;
3197;SDS011;1611;49.394;11.136;2023-01-10T00:06:31;3.00;;;1.63;;
3197;SDS011;1611;49.394;11.136;2023-01-10T00:08:58;1.70;;;1.60;;
3197;SDS011;1611;49.394;11.136;2023-01-10T00:11:25;4.22;;;1.60;;
3197;SDS011;1611;49.394;11.136;2023-01-10T00:14:10;1.73;;;1.63;;
3197;SDS011;1611;49.394;11.136;2023-01-10T00:16:37;3.20;;;1.70;;
3197;SDS011;1611;49.394;11.136;2023-01-10T00:19:04;5.65;;;2.00;;
3197;SDS011;1611;49.394;11.136;2023-01-10T00:21:32;3.45;;;1.50;;
3197;SDS011;1611;49.394;11.136;2023-01-10T00:23:59;2.90;;;1.63;;
3197;SDS011;1611;49.394;11.136;2023-01-10T00:26:40;3.95;;;1.92;;
3197;SDS011;1611;49.394;11.136;2023-01-10T00:29:08;4.53;;;2.05;;
3197;SDS011;1611;49.394;11.136;2023-01-10T00:31:38;4.63;;;2.38;;
3197;SDS011;1611;49.394;11.136;2023-01-10T00:34:04;2.80;;;2.38;;
3197;SDS011;1611;49.394;11.136;2023-01-10T00:36:31;3.05;;;2.15;;
3197;SDS011;1611;49.394;11.136;2023-01-10T00:38:58;2.67;;;2.45;;
3197;SDS011;1611;49.394;11.136;2023-01-10T00:41:25;2.60;;;2.40;;
3197;SDS011;1611;49.394;11.136;2023-01-10T00:44:09;6.32;;;2.58;;
3197;SDS011;1611;49.394;11.136;2023-01-10T00:46:37;8.98;;;2.15;;
3197;SDS011;1611;49.394;11.136;2023-01-10T00:49:04;2.72;;;2.53;;
3197;SDS011;1611;49.394;11.136;2023-01-10T00:51:35;3.58;;;2.15;;
3197;SDS011;1611;49.394;11.136;2023-01-10T00:54:01;2.67;;;2.47;;
3197;SDS011;1611;49.394;11.136;2023-01-10T00:56:28;9.68;;;2.45;;
3197;SDS011;1611;49.394;11.136;2023-01-10T00:58:55;2.28;;;2.05;;
3197;SDS011;1611;49.394;11.136;2023-01-10T01:01:22;3.83;;;2.60;;
3197;SDS011;1611;49.394;11.136;2023-01-10T01:03:50;2.53;;;2.22;;
3197;SDS011;1611;49.394;11.136;2023-01-10T01:06:17;5.82;;;2.33;;
3197;SDS011;1611;49.394;11.136;2023-01-10T01:08:43;9.48;;;3.10;;
3197;SDS011;1611;49.394;11.136;2023-01-10T01:11:10;2.65;;;2.20;;
3197;SDS011;1611;49.394;11.136;2023-01-10T01:13:37;3.55;;;3.35;;
3197;SDS011;1611;49.394;11.136;2023-01-10T01:16:04;2.63;;;2.53;;
3197;SDS011;1611;49.394;11.136;2023-01-10T01:18:31;4.30;;;2.78;;
3197;SDS011;1611;49.394;11.136;2023-01-10T01:20:59;5.13;;;3.05;;
3197;SDS011;1611;49.394;11.136;2023-01-10T01:23:28;2.92;;;2.72;;
3197;SDS011;1611;49.394;11.136;2023-01-10T01:25:55;5.60;;;2.70;;
3197;SDS011;1611;49.394;11.136;2023-01-10T01:28:22;5.35;;;3.15;;
3197;SDS011;1611;49.394;11.136;2023-01-10T01:30:49;6.50;;;3.13;;
3197;SDS011;1611;49.394;11.136;2023-01-10T01:33:16;5.38;;;2.80;;
3197;SDS011;1611;49.394;11.136;2023-01-10T01:35:44;5.10;;;3.10;;
3197;SDS011;1611;49.394;11.136;2023-01-10T01:38:13;3.65;;;3.10;;
3197;SDS011;1611;49.394;11.136;2023-01-10T01:40:40;3.20;;;2.65;;
3197;SDS011;1611;49.394;11.136;2023-01-10T01:43:11;4.68;;;3.10;;
3197;SDS011;1611;49.394;11.136;2023-01-10T01:45:47;3.65;;;3.30;;
3197;SDS011;1611;49.394;11.136;2023-01-10T01:48:17;2.67;;;2.58;;
3197;SDS011;1611;49.394;11.136;2023-01-10T01:50:49;2.92;;;2.72;;
3197;SDS011;1611;49.394;11.136;2023-01-10T01:53:23;3.33;;;3.03;;
3197;SDS011;1611;49.394;11.136;2023-01-10T01:55:54;4.05;;;2.70;;
3197;SDS011;1611;49.394;11.136;2023-01-10T01:58:25;3.03;;;2.60;;
3197;SDS011;1611;49.394;11.136;2023-01-10T02:00:59;3.35;;;3.15;;
3197;SDS011;1611;49.394;11.136;2023-01-10T02:03:26;4.63;;;2.90;;
3197;SDS011;1611;49.394;11.136;2023-01-10T02:05:53;3.42;;;2.65;;
3197;SDS011;1611;49.394;11.136;2023-01-10T02:08:20;2.88;;;2.50;;
3197;SDS011;1611;49.394;11.136;2023-01-10T02:10:50;4.13;;;2.60;;
3197;SDS011;1611;49.394;11.136;2023-01-10T02:13:21;2.50;;;2.40;;
3197;SDS011;1611;49.394;11.136;2023-01-10T02:15:50;2.50;;;2.40;;
3197;SDS011;1611;49.394;11.136;2023-01-10T02:18:17;3.65;;;2.58;;
3197;SDS011;1611;49.394;11.136;2023-01-10T02:20:49;2.80;;;2.70;;
3197;SDS011;1611;49.394;11.136;2023-01-10T02:23:49;2.83;;;2.72;;
3197;SDS011;1611;49.394;11.136;2023-01-10T02:26:41;2.60;;;2.50;;
3197;SDS011;1611;49.394;11.136;2023-01-10T02:32:24;2.65;;;2.47;;
3197;SDS011;1611;49.394;11.136;2023-01-10T02:35:02;5.10;;;2.40;;
3197;SDS011;1611;49.394;11.136;2023-01-10T02:37:40;3.15;;;2.50;;
3197;SDS011;1611;49.394;11.136;2023-01-10T02:40:18;2.80;;;2.60;;
3197;SDS011;1611;49.394;11.136;2023-01-10T02:42:54;2.55;;;2.35;;
3197;SDS011;1611;49.394;11.136;2023-01-10T02:45:27;3.70;;;2.95;;
3197;SDS011;1611;49.394;11.136;2023-01-10T02:47:58;2.65;;;2.55;;
3197;SDS011;1611;49.394;11.136;2023-01-10T02:50:29;2.85;;;2.65;;
3197;SDS011;1611;49.394;11.136;2023-01-10T02:53:18;2.97;;;2.67;;
3197;SDS011;1611;49.394;11.136;2023-01-10T02:56:01;3.05;;;2.88;;
3197;SDS011;1611;49.394;11.136;2023-01-10T02:58:50;2.90;;;2.70;;
3197;SDS011;1611;49.394;11.136;2023-01-10T03:01:30;2.67;;;2.58;;
3197;SDS011;1611;49.394;11.136;2023-01-10T03:04:06;3.05;;;2.95;;
3197;SDS011;1611;49.394;11.136;2023-01-10T03:06:43;3.78;;;3.28;;
3197;SDS011;1611;49.394;11.136;2023-01-10T03:09:15;2.90;;;2.60;;
3197;SDS011;1611;49.394;11.136;2023-01-10T03:11:46;3.05;;;2.75;;
3197;SDS011;1611;49.394;11.136;2023-01-10T03:14:21;3.28;;;3.08;;
3197;SDS011;1611;49.394;11.136;2023-01-10T03:16:51;3.72;;;3.50;;
3197;SDS011;1611;49.394;11.136;2023-01-10T03:19:22;3.05;;;2.85;;
3197;SDS011;1611;49.394;11.136;2023-01-10T03:21:53;3.00;;;2.88;;
3197;SDS011;1611;49.394;11.136;2023-01-10T03:24:23;4.63;;;2.85;;
3197;SDS011;1611;49.394;11.136;2023-01-10T03:26:56;4.45;;;2.80;;
3197;SDS011;1611;49.394;11.136;2023-01-10T03:29:27;3.97;;;3.28;;
3197;SDS011;1611;49.394;11.136;2023-01-10T03:32:01;3.38;;;3.15;;
3197;SDS011;1611;49.394;11.136;2023-01-10T03:34:32;6.45;;;3.50;;
3197;SDS011;1611;49.394;11.136;2023-01-10T03:37:02;2.85;;;2.72;;
3197;SDS011;1611;49.394;11.136;2023-01-10T03:39:36;3.58;;;3.30;;
3197;SDS011;1611;49.394;11.136;2023-01-10T03:42:13;3.85;;;3.45;;
3197;SDS011;1611;49.394;11.136;2023-01-10T03:44:48;3.50;;;3.17;;
3197;SDS011;1611;49.394;11.136;2023-01-10T03:47:21;4.05;;;3.75;;
3197;SDS011;1611;49.394;11.136;2023-01-10T03:49:55;7.18;;;2.83;;
3197;SDS011;1611;49.394;11.136;2023-01-10T03:52:25;4.18;;;3.75;;
3197;SDS011;1611;49.394;11.136;2023-01-10T03:54:53;5.47;;;3.70;;
3197;SDS011;1611;49.394;11.136;2023-01-10T03:57:23;4.82;;;3.13;;
3197;SDS011;1611;49.394;11.136;2023-01-10T03:59:51;4.05;;;3.13;;
3197;SDS011;1611;49.394;11.136;2023-01-10T04:02:19;3.67;;;3.40;;
3197;SDS011;1611;49.394;11.136;2023-01-10T04:04:46;4.03;;;3.42;;
3197;SDS011;1611;49.394;11.136;2023-01-10T04:07:14;4.15;;;3.85;;
3197;SDS011;1611;49.394;11.136;2023-01-10T04:09:40;5.72;;;4.00;;
3197;SDS011;1611;49.394;11.136;2023-01-10T04:12:07;4.15;;;3.85;;
3197;SDS011;1611;49.394;11.136;2023-01-10T04:14:34;3.97;;;3.78;;
3197;SDS011;1611;49.394;11.136;2023-01-10T04:17:01;4.82;;;4.05;;
3197;SDS011;1611;49.394;11.136;2023-01-10T04:19:28;6.15;;;3.88;;
3197;SDS011;1611;49.394;11.136;2023-01-10T04:21:54;4.53;;;4.10;;
3197;SDS011;1611;49.394;11.136;2023-01-10T04:24:23;3.42;;;3.22;;
3197;SDS011;1611;49.394;11.136;2023-01-10T04:26:49;6.93;;;4.35;;
3197;SDS011;1611;49.394;11.136;2023-01-10T04:29:16;5.85;;;4.13;;
3197;SDS011;1611;49.394;11.136;2023-01-10T04:31:43;4.10;;;3.90;;
3197;SDS011;1611;49.394;11.136;2023-01-10T04:34:09;4.10;;;3.55;;
3197;SDS011;1611;49.394;11.136;2023-01-10T04:36:36;5.95;;;4.38;;
3197;SDS011;1611;49.394;11.136;2023-01-10T04:39:03;5.20;;;4.22;;
3197;SDS011;1611;49.394;11.136;2023-01-10T04:41:31;6.60;;;4.47;;
3197;SDS011;1611;49.394;11.136;2023-01-10T04:43:58;8.18;;;4.65;;
3197;SDS011;1611;49.394;11.136;2023-01-10T04:46:25;6.65;;;4.50;;
3197;SDS011;1611;49.394;11.136;2023-01-10T04:48:51;5.22;;;4.82;;
3197;SDS011;1611;49.394;11.136;2023-01-10T04:51:18;7.68;;;4.50;;
3197;SDS011;1611;49.394;11.136;2023-01-10T04:53:45;9.20;;;4.22;;
3197;SDS011;1611;49.394;11.136;2023-01-10T04:56:14;5.70;;;4.65;;
3197;SDS011;1611;49.394;11.136;2023-01-10T04:58:44;5.25;;;4.80;;
3197;SDS011;1611;49.394;11.136;2023-01-10T05:01:13;6.80;;;4.30;;
3197;SDS011;1611;49.394;11.136;2023-01-10T05:03:40;5.35;;;4.95;;
3197;SDS011;1611;49.394;11.136;2023-01-10T05:06:07;5.25;;;4.82;;
3197;SDS011;1611;49.394;11.136;2023-01-10T05:08:34;5.20;;;4.28;;
3197;SDS011;1611;49.394;11.136;2023-01-10T05:11:01;5.45;;;4.65;;
3197;SDS011;1611;49.394;11.136;2023-01-10T05:13:28;5.82;;;4.43;;
3197;SDS011;1611;49.394;11.136;2023-01-10T05:15:56;9.10;;;4.72;;
3197;SDS011;1611;49.394;11.136;2023-01-10T05:18:24;6.10;;;4.15;;
3197;SDS011;1611;49.394;11.136;2023-01-10T05:20:50;5.57;;;4.13;;
3197;SDS011;1611;49.394;11.136;2023-01-10T05:23:17;5.50;;;3.85;;
3197;SDS011;1611;49.394;11.136;2023-01-10T05:25:44;4.20;;;3.70;;
3197;SDS011;1611;49.394;11.136;2023-01-10T05:28:11;6.85;;;4.47;;
3197;SDS011;1611;49.394;11.136;2023-01-10T05:30:37;4.78;;;4.38;;
3197;SDS011;1611;49.394;11.136;2023-01-10T05:33:06;5.95;;;5.00;;
3197;SDS011;1611;49.394;11.136;2023-01-10T05:35:32;5.03;;;4.60;;
3197;SDS011;1611;49.394;11.136;2023-01-10T05:37:59;7.03;;;6.25;;
3197;SDS011;1611;49.394;11.136;2023-01-10T05:40:26;7.32;;;5.10;;
3197;SDS011;1611;49.394;11.136;2023-01-10T05:42:53;8.75;;;5.18;;
3197;SDS011;1611;49.394;11.136;2023-01-10T05:45:19;6.07;;;4.80;;
3197;SDS011;1611;49.394;11.136;2023-01-10T05:47:46;6.53;;;5.60;;
3197;SDS011;1611;49.394;11.136;2023-01-10T05:50:15;5.25;;;4.80;;
3197;SDS011;1611;49.394;11.136;2023-01-10T05:52:41;7.72;;;4.93;;
3197;SDS011;1611;49.394;11.136;2023-01-10T05:55:08;8.85;;;5.38;;
3197;SDS011;1611;49.394;11.136;2023-01-10T05:57:35;10.35;;;5.15;;
3197;SDS011;1611;49.394;11.136;2023-01-10T06:00:02;6.00;;;5.35;;
3197;SDS011;1611;49.394;11.136;2023-01-10T06:02:30;6.13;;;5.30;;
3197;SDS011;1611;49.394;11.136;2023-01-10T06:04:57;8.00;;;5.20;;
3197;SDS011;1611;49.394;11.136;2023-01-10T06:07:25;14.93;;;5.97;;
3197;SDS011;1611;49.394;11.136;2023-01-10T06:09:52;6.13;;;4.78;;
3197;SDS011;1611;49.394;11.136;2023-01-10T06:12:18;7.20;;;4.68;;
3197;SDS011;1611;49.394;11.136;2023-01-10T06:14:45;5.05;;;4.53;;
3197;SDS011;1611;49.394;11.136;2023-01-10T06:17:12;14.70;;;5.57;;
3197;SDS011;1611;49.394;11.136;2023-01-10T06:19:38;8.90;;;5.63;;
3197;SDS011;1611;49.394;11.136;2023-01-10T06:22:05;6.20;;;4.32;;
3197;SDS011;1611;49.394;11.136;2023-01-10T06:24:33;6.50;;;4.50;;
3197;SDS011;1611;49.394;11.136;2023-01-10T06:27:00;9.50;;;4.30;;
3197;SDS011;1611;49.394;11.136;2023-01-10T06:29:27;9.50;;;5.32;;
3197;SDS011;1611;49.394;11.136;2023-01-10T06:31:53;5.18;;;4.68;;
3197;SDS011;1611;49.394;11.136;2023-01-10T06:34:20;7.00;;;4.60;;
3197;SDS011;1611;49.394;11.136;2023-01-10T06:36:47;5.95;;;4.18;;
3197;SDS011;1611;49.394;11.136;2023-01-10T06:39:13;6.40;;;4.20;;
3197;SDS011;1611;49.394;11.136;2023-01-10T06:41:41;4.68;;;4.30;;
3197;SDS011;1611;49.394;11.136;2023-01-10T06:44:08;11.45;;;4.60;;
3197;SDS011;1611;49.394;11.136;2023-01-10T06:46:35;12.20;;;4.78;;
3197;SDS011;1611;49.394;11.136;2023-01-10T06:49:02;9.27;;;4.50;;
3197;SDS011;1611;49.394;11.136;2023-01-10T06:51:29;6.57;;;3.97;;
3197;SDS011;1611;49.394;11.136;2023-01-10T06:53:56;6.70;;;4.53;;
3197;SDS011;1611;49.394;11.136;2023-01-10T06:56:22;8.02;;;4.50;;
3197;SDS011;1611;49.394;11.136;2023-01-10T06:58:50;5.63;;;4.82;;
3197;SDS011;1611;49.394;11.136;2023-01-10T07:01:18;6.30;;;4.40;;
3197;SDS011;1611;49.394;11.136;2023-01-10T07:03:45;5.97;;;4.20;;
3197;SDS011;1611;49.394;11.136;2023-01-10T07:06:12;4.75;;;4.30;;
3197;SDS011;1611;49.394;11.136;2023-01-10T07:08:40;9.38;;;5.22;;
3197;SDS011;1611;49.394;11.136;2023-01-10T07:11:08;5.90;;;4.20;;
3197;SDS011;1611;49.394;11.136;2023-01-10T07:13:36;5.15;;;4.38;;
3197;SDS011;1611;49.394;11.136;2023-01-10T07:16:06;4.30;;;4.00;;
3197;SDS011;1611;49.394;11.136;2023-01-10T07:18:34;6.85;;;3.95;;
3197;SDS011;1611;49.394;11.136;2023-01-10T07:21:02;9.18;;;4.38;;
3197;SDS011;1611;49.394;11.136;2023-01-10T07:23:29;8.35;;;4.82;;
3197;SDS011;1611;49.394;11.136;2023-01-10T07:25:56;6.00;;;4.10;;
3197;SDS011;1611;49.394;11.136;2023-01-10T07:28:23;8.55;;;3.65;;
3197;SDS011;1611;49.394;11.136;2023-01-10T07:30:50;3.85;;;3.13;;
3197;SDS011;1611;49.394;11.136;2023-01-10T07:33:18;10.35;;;3.97;;
3197;SDS011;1611;49.394;11.136;2023-01-10T07:35:44;14.82;;;4.65;;
3197;SDS011;1611;49.394;11.136;2023-01-10T07:38:11;11.23;;;3.80;;
3197;SDS011;1611;49.394;11.136;2023-01-10T07:40:38;5.47;;;3.25;;
3197;SDS011;1611;49.394;11.136;2023-01-10T07:43:05;6.35;;;3.40;;
3197;SDS011;1611;49.394;11.136;2023-01-10T07:45:31;9.75;;;3.40;;
3197;SDS011;1611;49.394;11.136;2023-01-10T07:47:58;11.45;;;4.00;;
3197;SDS011;1611;49.394;11.136;2023-01-10T07:50:30;10.13;;;3.13;;
3197;SDS011;1611;49.394;11.136;2023-01-10T07:52:58;6.38;;;3.42;;
3197;SDS011;1611;49.394;11.136;2023-01-10T07:55:26;10.77;;;4.25;;
3197;SDS011;1611;49.394;11.136;2023-01-10T07:57:54;6.90;;;3.08;;
3197;SDS011;1611;49.394;11.136;2023-01-10T08:00:21;10.48;;;3.45;;
3197;SDS011;1611;49.394;11.136;2023-01-10T08:02:51;10.63;;;3.45;;
3197;SDS011;1611;49.394;11.136;2023-01-10T08:05:18;6.53;;;3.58;;
3197;SDS011;1611;49.394;11.136;2023-01-10T08:07:47;6.68;;;3.50;;
3197;SDS011;1611;49.394;11.136;2023-01-10T08:10:14;5.97;;;2.95;;
3197;SDS011;1611;49.394;11.136;2023-01-10T08:12:41;13.10;;;3.53;;
3197;SDS011;1611;49.394;11.136;2023-01-10T08:15:08;6.25;;;3.88;;
3197;SDS011;1611;49.394;11.136;2023-01-10T08:17:35;7.55;;;2.65;;
3197;SDS011;1611;49.394;11.136;2023-01-10T08:20:02;5.80;;;3.05;;
3197;SDS011;1611;49.394;11.136;2023-01-10T08:22:29;7.28;;;3.10;;
3197;SDS011;1611;49.394;11.136;2023-01-10T08:24:57;7.75;;;2.90;;
3197;SDS011;1611;49.394;11.136;2023-01-10T08:27:24;9.15;;;2.70;;
3197;SDS011;1611;49.394;11.136;2023-01-10T08:29:51;10.55;;;3.38;;
3197;SDS011;1611;49.394;11.136;2023-01-10T08:32:18;9.52;;;3.58;;
3197;SDS011;1611;49.394;11.136;2023-01-10T08:34:44;5.28;;;3.50;;
3197;SDS011;1611;49.394;11.136;2023-01-10T08:37:11;6.30;;;2.92;;
3197;SDS011;1611;49.394;11.136;2023-01-10T08:39:39;9.32;;;3.80;;
3197;SDS011;1611;49.394;11.136;2023-01-10T08:42:07;13.13;;;3.30;;
3197;SDS011;1611;49.394;11.136;2023-01-10T08:44:34;11.18;;;3.53;;
3197;SDS011;1611;49.394;11.136;2023-01-10T08:47:01;7.85;;;3.85;;
3197;SDS011;1611;49.394;11.136;2023-01-10T08:49:28;8.80;;;3.80;;
3197;SDS011;1611;49.394;11.136;2023-01-10T08:51:54;10.60;;;4.20;;
3197;SDS011;1611;49.394;11.136;2023-01-10T08:54:21;10.50;;;3.38;;
3197;SDS011;1611;49.394;11.136;2023-01-10T08:56:48;6.90;;;3.60;;
3197;SDS011;1611;49.394;11.136;2023-01-10T08:59:16;10.38;;;3.72;;
3197;SDS011;1611;49.394;11.136;2023-01-10T09:01:43;6.20;;;2.90;;
3197;SDS011;1611;49.394;11.136;2023-01-10T09:04:10;10.15;;;3.50;;
3197;SDS011;1611;49.394;11.136;2023-01-10T09:06:37;7.53;;;3.30;;
3197;SDS011;1611;49.394;11.136;2023-01-10T09:09:03;6.38;;;3.70;;
3197;SDS011;1611;49.394;11.136;2023-01-10T09:11:30;16.73;;;4.55;;
3197;SDS011;1611;49.394;11.136;2023-01-10T09:13:57;5.82;;;3.17;;
3197;SDS011;1611;49.394;11.136;2023-01-10T09:16:25;8.07;;;3.10;;
3197;SDS011;1611;49.394;11.136;2023-01-10T09:18:52;3.33;;;2.95;;
3197;SDS011;1611;49.394;11.136;2023-01-10T09:21:20;14.98;;;4.15;;
3197;SDS011;1611;49.394;11.136;2023-01-10T09:23:47;4.25;;;2.90;;
3197;SDS011;1611;49.394;11.136;2023-01-10T09:26:13;7.30;;;3.50;;
3197;SDS011;1611;49.394;11.136;2023-01-10T09:28:40;7.35;;;3.47;;
3197;SDS011;1611;49.394;11.136;2023-01-10T09:31:07;5.65;;;3.40;;
3197;SDS011;1611;49.394;11.136;2023-01-10T09:33:36;22.90;;;4.18;;
3197;SDS011;1611;49.394;11.136;2023-01-10T09:36:05;12.02;;;4.05;;
3197;SDS011;1611;49.394;11.136;2023-01-10T09:38:32;8.60;;;3.35;;
3197;SDS011;1611;49.394;11.136;2023-01-10T09:41:02;9.93;;;3.25;;
3197;SDS011;1611;49.394;11.136;2023-01-10T09:43:44;12.50;;;3.67;;
3197;SDS011;1611;49.394;11.136;2023-01-10T09:46:20;7.95;;;3.80;;
3197;SDS011;1611;49.394;11.136;2023-01-10T09:48:58;6.28;;;3.70;;
3197;SDS011;1611;49.394;11.136;2023-01-10T09:51:33;13.05;;;3.67;;
3197;SDS011;1611;49.394;11.136;2023-01-10T09:54:02;8.48;;;2.80;;
3197;SDS011;1611;49.394;11.136;2023-01-10T09:56:32;7.65;;;3.80;;
3197;SDS011;1611;49.394;11.136;2023-01-10T09:58:59;13.57;;;3.88;;
3197;SDS011;1611;49.394;11.136;2023-01-10T10:01:28;14.68;;;3.97;;
3197;SDS011;1611;49.394;11.136;2023-01-10T10:04:04;9.60;;;3.38;;
3197;SDS011;1611;49.394;11.136;2023-01-10T10:06:40;6.93;;;3.45;;
3197;SDS011;1611;49.394;11.136;2023-01-10T10:09:07;13.30;;;3.45;;
3197;SDS011;1611;49.394;11.136;2023-01-10T10:11:43;10.32;;;3.22;;
3197;SDS011;1611;49.394;11.136;2023-01-10T10:14:18;9.20;;;3.67;;
3197;SDS011;1611;49.394;11.136;2023-01-10T10:17:02;15.25;;;3.75;;
3197;SDS011;1611;49.394;11.136;2023-01-10T10:19:49;10.57;;;3.40;;
3197;SDS011;1611;49.394;11.136;2023-01-10T10:22:27;8.93;;;3.35;;
3197;SDS011;1611;49.394;11.136;2023-01-10T10:25:03;8.43;;;3.60;;
3197;SDS011;1611;49.394;11.136;2023-01-10T10:27:40;6.97;;;3.30;;
3197;SDS011;1611;49.394;11.136;2023-01-10T10:30:25;9.20;;;3.50;;
3197;SDS011;1611;49.394;11.136;2023-01-10T10:33:12;4.70;;;2.70;;
3197;SDS011;1611;49.394;11.136;2023-01-10T10:35:54;10.73;;;2.75;;
3197;SDS011;1611;49.394;11.136;2023-01-10T10:38:26;13.48;;;3.20;;
3197;SDS011;1611;49.394;11.136;2023-01-10T10:40:57;7.60;;;2.83;;
3197;SDS011;1611;49.394;11.136;2023-01-10T10:43:31;6.32;;;2.95;;
3197;SDS011;1611;49.394;11.136;2023-01-10T10:46:00;11.23;;;2.92;;
3197;SDS011;1611;49.394;11.136;2023-01-10T10:48:31;4.60;;;2.70;;
3197;SDS011;1611;49.394;11.136;2023-01-10T10:51:03;10.02;;;2.75;;
3197;SDS011;1611;49.394;11.136;2023-01-10T10:53:33;7.45;;;2.90;;
3197;SDS011;1611;49.394;11.136;2023-01-10T10:56:00;4.55;;;2.80;;
3197;SDS011;1611;49.394;11.136;2023-01-10T10:58:29;13.93;;;3.70;;
3197;SDS011;1611;49.394;11.136;2023-01-10T11:00:56;4.35;;;2.70;;
3197;SDS011;1611;49.394;11.136;2023-01-10T11:03:24;6.00;;;3.30;;
3197;SDS011;1611;49.394;11.136;2023-01-10T11:05:56;9.50;;;2.80;;
3197;SDS011;1611;49.394;11.136;2023-01-10T11:08:26;17.80;;;3.17;;
3197;SDS011;1611;49.394;11.136;2023-01-10T11:10:55;11.43;;;3.58;;
3197;SDS011;1611;49.394;11.136;2023-01-10T11:13:29;5.72;;;3.10;;
3197;SDS011;1611;49.394;11.136;2023-01-10T11:16:06;8.35;;;2.47;;
3197;SDS011;1611;49.394;11.136;2023-01-10T11:18:33;7.15;;;3.08;;
3197;SDS011;1611;49.394;11.136;2023-01-10T11:21:02;8.18;;;2.85;;
3197;SDS011;1611;49.394;11.136;2023-01-10T11:23:41;15.18;;;2.60;;
3197;SDS011;1611;49.394;11.136;2023-01-10T11:26:21;8.55;;;2.83;;
3197;SDS011;1611;49.394;11.136;2023-01-10T11:28:51;8.65;;;2.50;;
3197;SDS011;1611;49.394;11.136;2023-01-10T11:31:31;9.25;;;2.40;;
3197;SDS011;1611;49.394;11.136;2023-01-10T11:33:58;8.10;;;2.65;;
3197;SDS011;1611;49.394;11.136;2023-01-10T11:36:28;13.10;;;3.10;;
3197;SDS011;1611;49.394;11.136;2023-01-10T11:39:20;5.25;;;1.95;;
3197;SDS011;1611;49.394;11.136;2023-01-10T11:41:47;10.75;;;3.10;;
3197;SDS011;1611;49.394;11.136;2023-01-10T11:44:19;8.65;;;2.90;;
3197;SDS011;1611;49.394;11.136;2023-01-10T11:46:48;17.95;;;3.38;;
3197;SDS011;1611;49.394;11.136;2023-01-10T11:49:17;13.73;;;3.15;;
3197;SDS011;1611;49.394;11.136;2023-01-10T11:51:55;8.02;;;2.83;;
3197;SDS011;1611;49.394;11.136;2023-01-10T11:54:27;8.45;;;3.40;;
3197;SDS011;1611;49.394;11.136;2023-01-10T11:56:55;7.75;;;3.13;;
3197;SDS011;1611;49.394;11.136;2023-01-10T11:59:23;5.30;;;2.42;;
3197;SDS011;1611;49.394;11.136;2023-01-10T12:01:53;10.68;;;2.70;;
3197;SDS011;1611;49.394;11.136;2023-01-10T12:04:25;7.88;;;3.53;;
3197;SDS011;1611;49.394;11.136;2023-01-10T12:06:55;8.27;;;3.05;;
3197;SDS011;1611;49.394;11.136;2023-01-10T12:09:34;13.93;;;3.40;;
3197;SDS011;1611;49.394;11.136;2023-01-10T12:12:05;5.35;;;2.60;;
3197;SDS011;1611;49.394;11.136;2023-01-10T12:14:41;16.45;;;3.45;;
3197;SDS011;1611;49.394;11.136;2023-01-10T12:17:09;14.68;;;2.75;;
3197;SDS011;1611;49.394;11.136;2023-01-10T12:19:46;8.88;;;2.97;;
3197;SDS011;1611;49.394;11.136;2023-01-10T12:22:13;9.18;;;2.50;;
3197;SDS011;1611;49.394;11.136;2023-01-10T12:24:43;14.35;;;3.90;;
3197;SDS011;1611;49.394;11.136;2023-01-10T12:27:14;11.30;;;3.22;;
3197;SDS011;1611;49.394;11.136;2023-01-10T12:29:45;5.45;;;2.60;;
3197;SDS011;1611;49.394;11.136;2023-01-10T12:32:18;9.25;;;2.90;;
3197;SDS011;1611;49.394;11.136;2023-01-10T12:34:52;7.25;;;2.45;;
3197;SDS011;1611;49.394;11.136;2023-01-10T12:37:25;12.07;;;2.83;;
3197;SDS011;1611;49.394;11.136;2023-01-10T12:40:01;20.35;;;3.10;;
3197;SDS011;1611;49.394;11.136;2023-01-10T12:42:40;12.27;;;3.17;;
3197;SDS011;1611;49.394;11.136;2023-01-10T12:45:34;13.02;;;3.28;;
3197;SDS011;1611;49.394;11.136;2023-01-10T12:48:08;8.40;;;3.20;;
3197;SDS011;1611;49.394;11.136;2023-01-10T12:50:41;14.60;;;2.92;;
3197;SDS011;1611;49.394;11.136;2023-01-10T12:53:11;10.02;;;2.97;;
3197;SDS011;1611;49.394;11.136;2023-01-10T12:55:50;11.18;;;3.50;;
3197;SDS011;1611;49.394;11.136;2023-01-10T12:58:21;13.70;;;3.22;;
3197;SDS011;1611;49.394;11.136;2023-01-10T13:00:54;11.75;;;3.13;;
3197;SDS011;1611;49.394;11.136;2023-01-10T13:03:26;13.20;;;3.63;;
3197;SDS011;1611;49.394;11.136;2023-01-10T13:05:55;7.40;;;3.05;;
3197;SDS011;1611;49.394;11.136;2023-01-10T13:08:24;13.50;;;3.72;;
3197;SDS011;1611;49.394;11.136;2023-01-10T13:10:56;8.65;;;2.72;;
3197;SDS011;1611;49.394;11.136;2023-01-10T13:13:26;5.63;;;2.30;;
3197;SDS011;1611;49.394;11.136;2023-01-10T13:16:00;10.35;;;2.97;;
3197;SDS011;1611;49.394;11.136;2023-01-10T13:18:46;13.73;;;3.00;;
3197;SDS011;1611;49.394;11.136;2023-01-10T13:21:25;16.67;;;3.47;;
3197;SDS011;1611;49.394;11.136;2023-01-10T13:23:52;8.57;;;3.40;;
3197;SDS011;1611;49.394;11.136;2023-01-10T13:26:24;11.75;;;3.08;;
3197;SDS011;1611;49.394;11.136;2023-01-10T13:28:52;20.42;;;3.00;;
3197;SDS011;1611;49.394;11.136;2023-01-10T13:31:21;10.25;;;2.92;;
3197;SDS011;1611;49.394;11.136;2023-01-10T13:33:51;8.02;;;2.90;;
3197;SDS011;1611;49.394;11.136;2023-01-10T13:36:20;15.23;;;2.78;;
3197;SDS011;1611;49.394;11.136;2023-01-10T13:38:51;12.50;;;3.38;;
3197;SDS011;1611;49.394;11.136;2023-01-10T13:41:21;13.20;;;3.20;;
3197;SDS011;1611;49.394;11.136;2023-01-10T13:44:08;11.25;;;2.85;;
3197;SDS011;1611;49.394;11.136;2023-01-10T13:46:38;4.78;;;2.90;;
3197;SDS011;1611;49.394;11.136;2023-01-10T13:55:00;12.95;;;3.00;;
3197;SDS011;1611;49.394;11.136;2023-01-10T13:57:48;8.10;;;2.60;;
3197;SDS011;1611;49.394;11.136;2023-01-10T14:00:40;4.10;;;2.40;;
3197;SDS011;1611;49.394;11.136;2023-01-10T14:06:31;7.75;;;2.33;;
3197;SDS011;1611;49.394;11.136;2023-01-10T14:09:26;10.57;;;2.33;;
3197;SDS011;1611;49.394;11.136;2023-01-10T14:11:58;10.45;;;2.10;;
3197;SDS011;1611;49.394;11.136;2023-01-10T14:14:27;7.85;;;2.60;;
3197;SDS011;1611;49.394;11.136;2023-01-10T14:17:08;10.50;;;3.10;;
3197;SDS011;1611;49.394;11.136;2023-01-10T14:19:38;11.63;;;2.85;;
3197;SDS011;1611;49.394;11.136;2023-01-10T14:22:17;8.82;;;2.38;;
3197;SDS011;1611;49.394;11.136;2023-01-10T14:24:49;12.15;;;2.97;;
3197;SDS011;1611;49.394;11.136;2023-01-10T14:27:18;8.35;;;2.58;;
3197;SDS011;1611;49.394;11.136;2023-01-10T14:29:46;12.77;;;2.90;;
3197;SDS011;1611;49.394;11.136;2023-01-10T14:32:21;11.02;;;2.65;;
3197;SDS011;1611;49.394;11.136;2023-01-10T14:34:56;6.30;;;2.70;;
3197;SDS011;1611;49.394;11.136;2023-01-10T14:37:26;9.85;;;2.15;;
3197;SDS011;1611;49.394;11.136;2023-01-10T14:39:59;8.70;;;2.70;;
3197;SDS011;1611;49.394;11.136;2023-01-10T14:42:26;13.68;;;2.65;;
3197;SDS011;1611;49.394;11.136;2023-01-10T14:44:56;4.43;;;2.03;;
3197;SDS011;1611;49.394;11.136;2023-01-10T14:47:29;3.15;;;2.55;;
3197;SDS011;1611;49.394;11.136;2023-01-10T14:49:57;10.57;;;2.63;;
3197;SDS011;1611;49.394;11.136;2023-01-10T14:52:26;8.18;;;2.45;;
3197;SDS011;1611;49.394;11.136;2023-01-10T14:54:53;6.07;;;2.35;;
3197;SDS011;1611;49.394;11.136;2023-01-10T14:57:27;11.93;;;2.20;;
3197;SDS011;1611;49.394;11.136;2023-01-10T14:59:59;6.57;;;2.38;;
3197;SDS011;1611;49.394;11.136;2023-01-10T15:02:30;10.05;;;2.85;;
3197;SDS011;1611;49.394;11.136;2023-01-10T15:04:57;13.30;;;3.17;;
3197;SDS011;1611;49.394;11.136;2023-01-10T15:07:31;14.75;;;3.90;;
3197;SDS011;1611;49.394;11.136;2023-01-10T15:09:58;9.82;;;2.50;;
3197;SDS011;1611;49.394;11.136;2023-01-10T15:12:28;13.30;;;3.22;;
3197;SDS011;1611;49.394;11.136;2023-01-10T15:14:59;14.02;;;2.88;;
3197;SDS011;1611;49.394;11.136;2023-01-10T15:17:29;16.05;;;3.42;;
3197;SDS011;1611;49.394;11.136;2023-01-10T15:19:57;14.77;;;2.85;;
3197;SDS011;1611;49.394;11.136;2023-01-10T15:22:25;12.75;;;2.55;;
3197;SDS011;1611;49.394;11.136;2023-01-10T15:24:57;7.13;;;2.80;;
3197;SDS011;1611;49.394;11.136;2023-01-10T15:27:25;6.07;;;2.45;;
3197;SDS011;1611;49.394;11.136;2023-01-10T15:29:53;8.20;;;2.53;;